Time;durP1;ratioP1;P1;durP2;ratioP2;P2;SDS_P1;SDS_P2;PMS_P1;PMS_P2;Temp;Humidity;BMP_temperature;BMP_pressure;BME280_temperature;BME280_humidity;BME280_pressure;Samples;Min_cycle;Max_cycle;Signal;HPM_P1;HPM_P2
2022/10/20 00:00:32;;;;;;;4.63;3.85;;;10.00;99.90;;;;;;5071517;28;20020;-39
2022/10/20 00:02:57;;;;;;;7.43;4.35;;;10.00;99.90;;;;;;5083092;28;20028;-40
2022/10/20 00:05:32;;;;;;;4.72;4.05;;;10.00;99.90;;;;;;5069564;28;20016;-39
2022/10/20 00:08:00;;;;;;;4.40;4.00;;;10.00;99.90;;;;;;5082808;28;20028;-39
2022/10/20 00:10:26;;;;;;;6.63;4.45;;;10.00;99.90;;;;;;5069375;28;20123;-40
2022/10/20 00:12:51;;;;;;;5.82;4.53;;;9.90;99.90;;;;;;5083276;28;20032;-40
2022/10/20 00:15:17;;;;;;;5.18;4.30;;;9.90;99.90;;;;;;5071272;28;20119;-40
2022/10/20 00:17:43;;;;;;;5.80;4.55;;;9.90;99.90;;;;;;5081875;28;20024;-40
2022/10/20 00:20:09;;;;;;;6.68;4.40;;;9.90;99.90;;;;;;5074141;28;20052;-39
2022/10/20 00:22:35;;;;;;;6.55;4.00;;;9.90;99.90;;;;;;5078114;28;20027;-39
2022/10/20 00:25:00;;;;;;;8.15;4.43;;;9.90;99.90;;;;;;5076860;28;20020;-40
2022/10/20 00:27:26;;;;;;;6.70;4.22;;;9.90;99.90;;;;;;5075444;28;20620;-39
2022/10/20 00:29:52;;;;;;;4.93;4.43;;;9.80;99.90;;;;;;5078001;28;20024;-38
2022/10/20 00:32:17;;;;;;;5.50;4.30;;;9.80;99.90;;;;;;5072445;28;20042;-41
2022/10/20 00:34:43;;;;;;;7.85;4.90;;;9.80;99.90;;;;;;5080264;28;20024;-38
2022/10/20 00:37:08;;;;;;;5.13;4.55;;;9.80;99.90;;;;;;5070883;28;20127;-40
2022/10/20 00:39:34;;;;;;;6.32;4.80;;;9.80;99.90;;;;;;5084316;28;20108;-40
2022/10/20 00:42:02;;;;;;;5.93;4.38;;;9.80;99.90;;;;;;5075526;28;20058;-39
2022/10/20 00:44:55;;;;;;;6.95;5.10;;;9.80;99.90;;;;;;5086494;28;20558;-37
2022/10/20 00:47:33;;;;;;;7.53;4.75;;;9.80;99.90;;;;;;5074552;28;20067;-39
2022/10/20 00:50:09;;;;;;;5.88;4.65;;;9.70;99.90;;;;;;5084885;28;20028;-38
2022/10/20 00:52:36;;;;;;;4.93;4.35;;;9.70;99.90;;;;;;5080378;28;20070;-39
2022/10/20 00:55:06;;;;;;;6.50;5.20;;;9.70;99.90;;;;;;5085900;28;20017;-38
2022/10/20 00:57:31;;;;;;;6.20;4.88;;;9.70;99.90;;;;;;5076448;28;20111;-40
2022/10/20 00:59:57;;;;;;;5.20;4.70;;;9.70;99.90;;;;;;5066399;28;20027;-39
2022/10/20 01:02:23;;;;;;;6.35;4.60;;;9.70;99.90;;;;;;5078569;28;20068;-38
2022/10/20 01:04:49;;;;;;;7.65;5.00;;;9.70;99.90;;;;;;5065814;28;20028;-37
2022/10/20 01:07:15;;;;;;;5.75;4.80;;;9.70;99.90;;;;;;5078044;28;20028;-39
2022/10/20 01:09:40;;;;;;;7.63;5.20;;;9.70;99.90;;;;;;5066399;28;20546;-39
2022/10/20 01:12:18;;;;;;;6.63;4.85;;;9.60;99.90;;;;;;5075175;28;20097;-39
2022/10/20 01:14:51;;;;;;;8.52;5.50;;;9.60;99.90;;;;;;5067085;28;20035;-38
2022/10/20 01:17:28;;;;;;;9.15;5.03;;;9.60;99.90;;;;;;5075606;28;20378;-37
2022/10/20 01:20:22;;;;;;;6.40;4.85;;;9.60;99.90;;;;;;5067391;28;20032;-38
2022/10/20 01:23:16;;;;;;;7.25;4.88;;;9.60;99.90;;;;;;5078639;28;20031;-37
2022/10/20 01:25:48;;;;;;;5.45;4.95;;;9.60;99.90;;;;;;5065742;28;20021;-39
2022/10/20 01:28:34;;;;;;;;;;;9.60;99.90;;;;;;5078334;28;20667;-37
2022/10/20 01:31:06;;;;;;;6.55;4.57;;;9.60;99.90;;;;;;5084563;28;19930;-38
2022/10/20 01:33:46;;;;;;;6.82;5.00;;;9.50;99.90;;;;;;5073185;28;20024;-39
2022/10/20 01:36:32;;;;;;;6.47;5.78;;;9.50;99.90;;;;;;5085398;28;20032;-37
2022/10/20 01:39:10;;;;;;;6.47;5.18;;;9.50;99.90;;;;;;5073427;28;20012;-40
2022/10/20 01:41:47;;;;;;;8.20;5.32;;;9.50;99.90;;;;;;5083731;28;20074;-39
2022/10/20 01:44:15;;;;;;;7.65;5.53;;;9.50;99.90;;;;;;5075948;28;20103;-38
2022/10/20 01:46:45;;;;;;;8.27;5.40;;;9.50;99.90;;;;;;5064431;28;20036;-40
2022/10/20 01:49:12;;;;;;;7.63;5.45;;;9.50;99.90;;;;;;5075547;28;20024;-40
2022/10/20 01:51:38;;;;;;;7.95;5.45;;;9.50;99.90;;;;;;5065703;28;20037;-39
2022/10/20 01:54:04;;;;;;;8.93;5.70;;;9.50;99.90;;;;;;5077277;28;20104;-40
2022/10/20 01:56:41;;;;;;;8.10;5.80;;;9.50;99.90;;;;;;5065605;28;20033;-39
2022/10/20 01:59:16;;;;;;;6.45;5.45;;;9.50;99.90;;;;;;5077464;28;20808;-39
2022/10/20 02:02:08;;;;;;;8.88;6.00;;;9.50;99.90;;;;;;5065305;28;20036;-37
2022/10/20 02:04:59;;;;;;;6.43;5.30;;;9.50;99.90;;;;;;5074317;28;20914;-40
2022/10/20 02:07:31;;;;;;;6.97;5.05;;;9.50;99.90;;;;;;5083983;28;20034;-39
2022/10/20 02:10:04;;;;;;;8.32;6.18;;;9.40;99.90;;;;;;5077420;28;20028;-36
2022/10/20 02:12:34;;;;;;;7.03;4.72;;;9.50;99.90;;;;;;5065050;28;20047;-39
2022/10/20 02:15:01;;;;;;;7.82;5.60;;;9.40;99.90;;;;;;5072911;28;20115;-38
2022/10/20 02:17:28;;;;;;;8.55;5.20;;;9.50;99.90;;;;;;5085477;28;20499;-39
2022/10/20 02:19:56;;;;;;;7.05;5.40;;;9.40;99.90;;;;;;5072638;28;20032;-40
2022/10/20 02:22:25;;;;;;;7.72;5.45;;;9.40;99.90;;;;;;5084345;28;20024;-38
2022/10/20 02:24:54;;;;;;;7.55;5.40;;;9.40;99.90;;;;;;5072324;28;20059;-39
2022/10/20 02:27:26;;;;;;;10.15;5.18;;;9.40;99.90;;;;;;5083989;28;20135;-40
2022/10/20 02:30:02;;;;;;;7.55;5.15;;;9.50;99.90;;;;;;5073277;28;20028;-39
2022/10/20 02:32:30;;;;;;;7.82;5.40;;;9.40;99.90;;;;;;5064589;28;20036;-39
2022/10/20 02:34:56;;;;;;;6.28;5.40;;;9.40;99.90;;;;;;5075057;28;20477;-38
2022/10/20 02:37:21;;;;;;;6.82;5.63;;;9.40;99.90;;;;;;5066097;28;20064;-39
2022/10/20 02:39:47;;;;;;;8.57;5.55;;;9.40;99.90;;;;;;5073127;28;20030;-37
2022/10/20 02:42:13;;;;;;;7.90;5.15;;;9.40;99.90;;;;;;5068434;28;20024;-39
2022/10/20 02:44:38;;;;;;;5.97;5.07;;;9.40;99.90;;;;;;5069998;28;20031;-39
2022/10/20 02:47:04;;;;;;;8.18;5.20;;;9.40;99.90;;;;;;5071286;28;20666;-40
2022/10/20 02:49:29;;;;;;;8.07;5.45;;;9.40;99.90;;;;;;5065285;28;20035;-40
2022/10/20 02:51:55;;;;;;;7.28;5.30;;;9.30;99.90;;;;;;5079155;28;20028;-40
2022/10/20 02:54:21;;;;;;;7.07;5.45;;;9.40;99.90;;;;;;5081785;28;20102;-39
2022/10/20 02:56:46;;;;;;;7.68;5.40;;;9.40;99.90;;;;;;5072573;28;20028;-35
2022/10/20 02:59:14;;;;;;;5.40;4.78;;;9.40;99.90;;;;;;5082747;28;20374;-34
2022/10/20 03:01:40;;;;;;;5.93;5.32;;;9.40;99.90;;;;;;5074495;28;20036;-37
2022/10/20 03:04:05;;;;;;;7.65;5.35;;;9.40;99.90;;;;;;5063907;28;20035;-40
2022/10/20 03:06:31;;;;;;;7.20;5.43;;;9.40;99.90;;;;;;5076272;28;20833;-37
2022/10/20 03:08:57;;;;;;;5.75;5.18;;;9.40;99.90;;;;;;5064075;28;20029;-38
2022/10/20 03:11:23;;;;;;;6.13;5.22;;;9.40;99.90;;;;;;5076021;28;20035;-40
2022/10/20 03:13:48;;;;;;;7.10;5.15;;;9.40;99.90;;;;;;5063601;28;20032;-39
2022/10/20 03:16:13;;;;;;;5.85;5.10;;;9.30;99.90;;;;;;5072083;28;20031;-39
2022/10/20 03:18:39;;;;;;;9.55;5.30;;;9.30;99.90;;;;;;5063288;28;20031;-40
2022/10/20 03:21:05;;;;;;;8.98;5.45;;;9.30;99.90;;;;;;5071145;28;20031;-37
2022/10/20 03:23:30;;;;;;;6.07;5.40;;;9.30;99.90;;;;;;5068444;28;20024;-39
2022/10/20 03:26:03;;;;;;;5.70;5.15;;;9.30;99.90;;;;;;5067551;28;20127;-40
2022/10/20 03:28:28;;;;;;;6.28;4.93;;;9.30;99.90;;;;;;5070024;28;20119;-39
2022/10/20 03:30:54;;;;;;;5.88;5.00;;;9.30;99.90;;;;;;5065150;28;20914;-39
2022/10/20 03:33:20;;;;;;;6.25;5.50;;;9.30;99.90;;;;;;5072848;28;20132;-39
2022/10/20 03:35:45;;;;;;;6.18;4.80;;;9.30;99.90;;;;;;5064949;28;20036;-37
2022/10/20 03:38:13;;;;;;;9.50;5.20;;;9.30;99.90;;;;;;5074010;28;20070;-39
2022/10/20 03:40:39;;;;;;;6.25;5.25;;;9.30;99.90;;;;;;5065106;28;20470;-39
2022/10/20 03:43:04;;;;;;;6.43;5.30;;;9.30;99.90;;;;;;5075318;28;20024;-38
2022/10/20 03:45:30;;;;;;;7.20;5.78;;;9.30;99.90;;;;;;5062896;28;20058;-38
2022/10/20 03:47:55;;;;;;;8.45;5.68;;;9.30;99.90;;;;;;5075791;28;20029;-39
2022/10/20 03:50:24;;;;;;;9.73;5.57;;;9.20;99.90;;;;;;5062906;28;20058;-39
2022/10/20 03:52:52;;;;;;;9.18;6.68;;;9.30;99.90;;;;;;5064959;28;20583;-39
2022/10/20 03:55:28;;;;;;;9.10;6.22;;;9.20;99.90;;;;;;5062662;28;20024;-43
2022/10/20 03:57:53;;;;;;;7.50;5.85;;;9.20;99.90;;;;;;5074406;28;20038;-39
2022/10/20 04:00:19;;;;;;;6.72;5.40;;;9.20;99.90;;;;;;5061525;28;20033;-41
2022/10/20 04:02:46;;;;;;;6.20;5.13;;;9.20;99.90;;;;;;5071808;28;20433;-40
2022/10/20 04:05:14;;;;;;;7.50;6.78;;;9.20;99.90;;;;;;5064568;28;20035;-39
2022/10/20 04:07:39;;;;;;;8.52;5.25;;;9.20;99.90;;;;;;5069932;28;20028;-40
2022/10/20 04:10:05;;;;;;;6.13;5.00;;;9.20;99.90;;;;;;5067764;28;20434;-38
2022/10/20 04:12:31;;;;;;;7.38;5.88;;;9.20;99.90;;;;;;5067149;28;20039;-39
2022/10/20 04:14:56;;;;;;;7.10;5.93;;;9.20;99.90;;;;;;5069773;28;20115;-40
2022/10/20 04:17:22;;;;;;;6.70;5.57;;;9.30;99.90;;;;;;5063946;28;20024;-39
2022/10/20 04:19:47;;;;;;;6.53;5.68;;;9.30;99.90;;;;;;5072329;28;20703;-38
2022/10/20 04:22:13;;;;;;;7.10;5.97;;;9.30;99.90;;;;;;5063315;28;20016;-38
2022/10/20 04:24:39;;;;;;;6.25;5.45;;;9.30;99.90;;;;;;5073820;28;20844;-40
2022/10/20 04:27:04;;;;;;;8.90;5.43;;;9.30;99.90;;;;;;5062888;28;20035;-38
2022/10/20 04:29:30;;;;;;;6.25;5.65;;;9.30;99.90;;;;;;5074030;28;20099;-40
2022/10/20 04:31:56;;;;;;;9.38;5.82;;;9.20;99.90;;;;;;5062909;28;20086;-39
2022/10/20 04:34:21;;;;;;;11.07;6.20;;;9.20;99.90;;;;;;5074182;28;20074;-38
2022/10/20 04:36:47;;;;;;;6.63;5.97;;;9.30;99.90;;;;;;5062968;28;20021;-39
2022/10/20 04:39:13;;;;;;;8.65;6.35;;;9.30;99.90;;;;;;5073393;28;20044;-38
2022/10/20 04:41:38;;;;;;;8.70;6.38;;;9.30;99.90;;;;;;5062965;28;20432;-40
2022/10/20 04:44:04;;;;;;;8.32;6.03;;;9.30;99.90;;;;;;5071906;28;20637;-40
2022/10/20 04:46:29;;;;;;;7.60;6.25;;;9.30;99.90;;;;;;5065945;28;20819;-38
2022/10/20 04:48:55;;;;;;;6.55;5.72;;;9.30;99.90;;;;;;5068445;28;20016;-38
2022/10/20 04:51:21;;;;;;;8.90;5.90;;;9.30;99.90;;;;;;5067681;28;20039;-35
2022/10/20 04:53:46;;;;;;;8.10;5.70;;;9.30;99.90;;;;;;5078428;28;20024;-40
2022/10/20 04:56:18;;;;;;;7.97;5.40;;;9.30;99.90;;;;;;5073155;28;20026;-40
2022/10/20 04:58:51;;;;;;;7.50;5.57;;;9.30;99.90;;;;;;5080750;28;20077;-41
2022/10/20 05:01:18;;;;;;;9.68;6.13;;;9.30;99.90;;;;;;5073112;28;20036;-40
2022/10/20 05:03:44;;;;;;;7.88;6.18;;;9.40;99.90;;;;;;5079651;28;20087;-39
2022/10/20 05:06:16;;;;;;;8.98;6.25;;;9.40;99.90;;;;;;5070391;28;20828;-40
2022/10/20 05:08:45;;;;;;;7.22;6.50;;;9.40;99.90;;;;;;5080605;28;20023;-37
2022/10/20 05:11:15;;;;;;;9.32;6.38;;;9.40;99.90;;;;;;5069527;28;20403;-41
2022/10/20 05:13:41;;;;;;;9.95;7.30;;;9.40;99.90;;;;;;5081054;28;20189;-40
2022/10/20 05:16:08;;;;;;;7.25;6.45;;;9.50;99.90;;;;;;5070211;28;20020;-37
2022/10/20 05:18:34;;;;;;;8.63;6.63;;;9.50;99.90;;;;;;5082567;28;20510;-40
2022/10/20 05:21:08;;;;;;;7.60;6.50;;;9.50;99.90;;;;;;5069487;28;20028;-40
2022/10/20 05:23:33;;;;;;;7.95;5.93;;;9.50;99.90;;;;;;5082594;28;20043;-37
2022/10/20 05:26:06;;;;;;;8.55;6.53;;;9.50;99.90;;;;;;5073558;28;20025;-40
2022/10/20 05:28:33;;;;;;;9.20;6.57;;;9.50;99.90;;;;;;5085219;28;20043;-38
2022/10/20 05:31:03;;;;;;;7.72;6.07;;;9.60;99.90;;;;;;5073711;28;20044;-39
2022/10/20 05:33:29;;;;;;;8.30;6.18;;;9.60;99.90;;;;;;5065482;28;20033;-39
2022/10/20 05:35:55;;;;;;;9.88;6.90;;;9.60;99.90;;;;;;5076127;28;20486;-39
2022/10/20 05:38:21;;;;;;;10.82;6.93;;;9.60;99.90;;;;;;5067467;28;20460;-40
2022/10/20 05:40:46;;;;;;;7.80;6.18;;;9.60;99.90;;;;;;5073688;28;20020;-40
2022/10/20 05:43:12;;;;;;;7.45;6.15;;;9.60;99.90;;;;;;5070211;28;20028;-39
2022/10/20 05:45:38;;;;;;;8.73;7.45;;;9.60;99.90;;;;;;5069824;28;20066;-40
2022/10/20 05:48:04;;;;;;;9.02;7.00;;;9.60;99.90;;;;;;5073286;28;20051;-39
2022/10/20 05:50:29;;;;;;;10.77;7.57;;;9.70;99.90;;;;;;5067038;28;20386;-35
2022/10/20 05:52:55;;;;;;;9.35;6.70;;;9.70;99.90;;;;;;5066883;28;20119;-40
2022/10/20 05:55:20;;;;;;;9.23;7.40;;;9.60;99.90;;;;;;5071091;28;20081;-39
2022/10/20 05:57:48;;;;;;;11.38;7.63;;;9.60;99.90;;;;;;5071594;28;20478;-38
2022/10/20 06:00:15;;;;;;;8.38;7.18;;;9.70;99.90;;;;;;5081630;28;20761;-39
2022/10/20 06:02:43;;;;;;;11.65;6.80;;;9.60;99.90;;;;;;5076146;28;20062;-36
2022/10/20 06:05:15;;;;;;;8.63;6.68;;;9.70;99.90;;;;;;5064208;28;20555;-38
2022/10/20 06:07:41;;;;;;;7.47;6.72;;;9.60;99.90;;;;;;5072575;28;20039;-35
2022/10/20 06:10:06;;;;;;;8.00;6.82;;;9.70;99.90;;;;;;5084814;28;20020;-37
2022/10/20 06:12:34;;;;;;;9.18;6.75;;;9.70;99.90;;;;;;5070811;28;20028;-34
2022/10/20 06:14:59;;;;;;;9.88;7.45;;;9.70;99.90;;;;;;5084307;28;20024;-40
2022/10/20 06:17:25;;;;;;;10.45;8.10;;;9.70;99.90;;;;;;5072474;28;20505;-38
2022/10/20 06:19:50;;;;;;;12.27;7.72;;;9.70;99.90;;;;;;5082272;28;20348;-39
2022/10/20 06:22:16;;;;;;;10.20;7.70;;;9.70;99.90;;;;;;5075253;28;20032;-40
2022/10/20 06:24:42;;;;;;;10.73;7.25;;;9.70;99.90;;;;;;5080326;28;20031;-40
2022/10/20 06:27:10;;;;;;;8.10;7.10;;;9.70;99.90;;;;;;5076648;28;20072;-40
2022/10/20 06:29:35;;;;;;;8.48;6.72;;;9.80;99.90;;;;;;5077870;28;20030;-37
2022/10/20 06:32:01;;;;;;;9.95;6.88;;;9.80;99.90;;;;;;5080300;28;20051;-42
2022/10/20 06:34:27;;;;;;;7.38;5.95;;;9.80;99.90;;;;;;5074522;28;20357;-35
2022/10/20 06:36:52;;;;;;;7.03;6.20;;;9.80;99.90;;;;;;5082930;28;20028;-39
2022/10/20 06:39:23;;;;;;;8.63;6.97;;;9.80;99.90;;;;;;5072563;28;20020;-39
2022/10/20 06:41:53;;;;;;;7.47;6.75;;;9.90;99.90;;;;;;5082394;28;20020;-39
2022/10/20 06:44:20;;;;;;;7.65;6.85;;;9.90;99.90;;;;;;5072603;28;20064;-40
2022/10/20 06:46:46;;;;;;;7.93;6.25;;;9.90;99.90;;;;;;5084052;28;20032;-40
2022/10/20 06:49:12;;;;;;;8.13;7.05;;;9.90;99.90;;;;;;5071584;28;20371;-39
2022/10/20 06:51:38;;;;;;;8.95;6.90;;;10.00;99.90;;;;;;5083697;28;20103;-39
2022/10/20 06:54:04;;;;;;;9.00;7.32;;;10.00;99.90;;;;;;5071141;28;20107;-39
2022/10/20 06:56:32;;;;;;;11.85;7.32;;;10.00;99.90;;;;;;5066214;28;20040;-39
2022/10/20 06:58:59;;;;;;;10.82;7.47;;;10.00;99.90;;;;;;5076434;28;20388;-38
2022/10/20 07:01:34;;;;;;;7.68;6.90;;;10.00;99.90;;;;;;5064240;28;20654;-38
2022/10/20 07:04:03;;;;;;;9.80;7.40;;;10.00;99.90;;;;;;5075593;28;20708;-38
2022/10/20 07:06:32;;;;;;;8.90;7.25;;;10.10;99.90;;;;;;5064443;28;20442;-39
2022/10/20 07:08:58;;;;;;;8.35;7.53;;;10.10;99.90;;;;;;5074044;28;20107;-41
2022/10/20 07:11:27;;;;;;;8.63;7.50;;;10.10;99.90;;;;;;5066628;28;20106;-39
2022/10/20 07:13:53;;;;;;;8.07;7.03;;;10.20;99.90;;;;;;5072040;28;20400;-40
2022/10/20 07:16:22;;;;;;;10.90;6.95;;;10.20;99.90;;;;;;5067842;28;20025;-39
2022/10/20 07:18:48;;;;;;;8.30;7.10;;;10.30;99.90;;;;;;5068931;28;20081;-38
2022/10/20 07:21:16;;;;;;;8.63;7.10;;;10.30;99.90;;;;;;5070737;28;20032;-40
2022/10/20 07:23:42;;;;;;;9.02;6.68;;;10.40;99.90;;;;;;5066309;28;20024;-36
2022/10/20 07:26:16;;;;;;;8.77;7.00;;;10.40;99.90;;;;;;5072968;28;20058;-41
2022/10/20 07:28:53;;;;;;;8.27;7.38;;;10.40;99.90;;;;;;5065137;28;20031;-39
2022/10/20 07:31:22;;;;;;;9.02;7.63;;;10.50;99.90;;;;;;5071090;28;20059;-39
2022/10/20 07:33:48;;;;;;;8.52;7.13;;;10.50;99.90;;;;;;5067199;28;20016;-39
2022/10/20 07:36:19;;;;;;;9.10;7.55;;;10.50;99.90;;;;;;5046132;28;20084;-39
2022/10/20 07:38:46;;;;;;;9.20;7.68;;;10.60;99.90;;;;;;5081718;28;20097;-39
2022/10/20 07:41:12;;;;;;;9.55;7.07;;;10.50;99.90;;;;;;5071657;28;20039;-38
2022/10/20 07:43:38;;;;;;;7.75;6.90;;;10.60;99.90;;;;;;5082777;28;20024;-39
2022/10/20 07:46:04;;;;;;;9.88;7.05;;;10.60;99.90;;;;;;5071297;28;20051;-37
2022/10/20 07:48:31;;;;;;;11.98;8.05;;;10.60;99.90;;;;;;5082673;28;20079;-40
2022/10/20 07:51:27;;;;;;;7.38;6.68;;;10.70;99.90;;;;;;5069656;28;20021;-40
2022/10/20 07:54:05;;;;;;;10.18;7.15;;;10.70;99.90;;;;;;5065070;28;20036;-40
2022/10/20 07:56:33;;;;;;;8.60;7.13;;;10.80;99.90;;;;;;5073941;28;20016;-38
2022/10/20 07:58:59;;;;;;;8.18;6.78;;;10.80;99.90;;;;;;5062348;28;20025;-40
2022/10/20 08:01:25;;;;;;;7.97;6.85;;;10.90;99.90;;;;;;5075350;28;20608;-38
2022/10/20 08:03:51;;;;;;;8.80;7.03;;;10.90;99.90;;;;;;5073890;28;20043;-37
2022/10/20 08:06:16;;;;;;;10.02;7.30;;;11.00;99.90;;;;;;5076371;28;20085;-38
2022/10/20 08:08:42;;;;;;;9.38;7.05;;;10.90;99.90;;;;;;5063173;28;20044;-39
2022/10/20 08:11:08;;;;;;;8.40;7.10;;;11.00;99.90;;;;;;5072633;28;20532;-38
2022/10/20 08:13:39;;;;;;;8.02;7.15;;;11.00;99.90;;;;;;5064257;28;20398;-40
2022/10/20 08:16:06;;;;;;;8.77;7.63;;;11.00;99.90;;;;;;5071938;28;20379;-40
2022/10/20 08:18:32;;;;;;;10.68;7.22;;;11.00;99.90;;;;;;5066727;28;20035;-40
2022/10/20 08:21:09;;;;;;;10.30;7.22;;;11.00;99.90;;;;;;5068508;28;20020;-39
2022/10/20 08:23:38;;;;;;;9.30;7.05;;;11.10;99.90;;;;;;5067736;28;20024;-40
2022/10/20 08:26:04;;;;;;;9.07;7.10;;;11.10;99.90;;;;;;5068493;28;20107;-40
2022/10/20 08:28:29;;;;;;;9.25;7.30;;;11.10;99.90;;;;;;5069953;28;20124;-41
2022/10/20 08:30:55;;;;;;;8.30;6.90;;;11.20;99.90;;;;;;5065239;28;20090;-39
2022/10/20 08:33:20;;;;;;;10.00;7.25;;;11.20;99.90;;;;;;5070984;28;20029;-39
2022/10/20 08:35:46;;;;;;;9.07;6.78;;;11.30;99.90;;;;;;5064372;28;20067;-40
2022/10/20 08:38:11;;;;;;;7.35;6.63;;;11.40;99.90;;;;;;5073856;28;20498;-39
2022/10/20 08:40:41;;;;;;;8.30;6.90;;;11.50;99.90;;;;;;5062100;28;20047;-40
2022/10/20 08:43:17;;;;;;;8.00;7.00;;;11.50;99.90;;;;;;5074394;28;20033;-41
2022/10/20 08:45:43;;;;;;;8.05;6.43;;;11.60;99.90;;;;;;5064428;28;20804;-39
2022/10/20 08:48:19;;;;;;;8.45;7.00;;;11.70;99.90;;;;;;5074152;28;20056;-40
2022/10/20 08:50:47;;;;;;;10.43;8.00;;;11.80;99.90;;;;;;5063605;28;20558;-41
2022/10/20 08:53:13;;;;;;;8.50;7.05;;;11.90;99.90;;;;;;5066420;28;20037;-39
2022/10/20 08:55:42;;;;;;;8.25;7.20;;;11.90;99.90;;;;;;5062196;28;20499;-40
2022/10/20 08:58:14;;;;;;;8.10;7.25;;;11.90;99.90;;;;;;5069289;28;20028;-39
2022/10/20 09:00:41;;;;;;;8.38;6.53;;;12.00;99.90;;;;;;5086683;28;20061;-41
2022/10/20 09:03:21;;;;;;;10.20;7.40;;;12.00;99.90;;;;;;5073418;28;20027;-38
2022/10/20 09:05:52;;;;;;;8.18;7.25;;;12.10;99.90;;;;;;5087330;28;20418;-40
2022/10/20 09:08:23;;;;;;;7.65;6.85;;;12.10;99.90;;;;;;5073508;28;20021;-40
2022/10/20 09:10:52;;;;;;;9.60;6.72;;;12.20;99.90;;;;;;5087111;28;20020;-41
2022/10/20 09:13:29;;;;;;;8.32;6.75;;;12.30;99.90;;;;;;5074503;28;20386;-40
2022/10/20 09:16:29;;;;;;;9.52;6.95;;;12.40;99.90;;;;;;5066070;28;20075;-37
2022/10/20 09:18:57;;;;;;;7.80;6.63;;;12.40;99.90;;;;;;5076945;28;20541;-37
2022/10/20 09:21:27;;;;;;;7.70;6.90;;;12.60;99.90;;;;;;5065559;28;20020;-37
2022/10/20 09:24:00;;;;;;;7.68;6.82;;;12.70;99.90;;;;;;5078390;28;20024;-37
2022/10/20 09:26:35;;;;;;;7.90;6.78;;;12.70;99.90;;;;;;5066348;28;20756;-39
2022/10/20 09:29:07;;;;;;;9.07;6.60;;;12.80;99.90;;;;;;5078530;28;20042;-40
2022/10/20 09:31:36;;;;;;;7.32;6.63;;;12.90;99.90;;;;;;5065354;28;20044;-39
2022/10/20 09:34:28;;;;;;;7.63;6.75;;;12.90;99.90;;;;;;5078046;28;20078;-40
2022/10/20 09:37:05;;;;;;;9.10;7.32;;;12.90;99.90;;;;;;5066122;28;20021;-39
2022/10/20 09:39:42;;;;;;;7.55;6.50;;;13.00;99.90;;;;;;5078136;28;20047;-35
2022/10/20 09:42:24;;;;;;;8.38;7.07;;;13.00;99.90;;;;;;5065495;28;20025;-40
2022/10/20 09:44:57;;;;;;;8.50;6.38;;;13.10;99.90;;;;;;5077554;28;20023;-38
2022/10/20 09:47:25;;;;;;;9.38;7.32;;;13.10;99.90;;;;;;5065942;28;20044;-37
2022/10/20 09:49:56;;;;;;;9.65;7.35;;;13.20;99.90;;;;;;5078666;28;20028;-38
2022/10/20 09:52:29;;;;;;;7.50;6.55;;;13.20;99.90;;;;;;5064915;28;20121;-40
2022/10/20 09:55:01;;;;;;;8.52;6.80;;;13.20;99.90;;;;;;5078179;28;20541;-40
2022/10/20 09:57:30;;;;;;;10.23;6.80;;;13.30;99.90;;;;;;5064669;28;20020;-39
2022/10/20 09:59:57;;;;;;;10.52;6.75;;;13.30;99.90;;;;;;5077838;28;20489;-38
2022/10/20 10:02:30;;;;;;;11.30;6.90;;;13.40;99.90;;;;;;5065270;28;20494;-37
2022/10/20 10:05:14;;;;;;;8.90;7.07;;;13.40;99.90;;;;;;5075636;28;20031;-40
2022/10/20 10:07:42;;;;;;;8.07;6.95;;;13.50;99.90;;;;;;5065379;28;20133;-37
2022/10/20 10:10:24;;;;;;;9.23;7.40;;;13.50;99.90;;;;;;5075084;28;20475;-40
2022/10/20 10:12:52;;;;;;;8.23;7.35;;;13.50;99.90;;;;;;5064875;28;20071;-38
2022/10/20 10:15:26;;;;;;;8.40;7.30;;;13.50;99.90;;;;;;5075696;28;20781;-39
2022/10/20 10:17:53;;;;;;;7.82;7.03;;;13.50;99.90;;;;;;5065284;28;20066;-41
2022/10/20 10:20:24;;;;;;;8.60;6.68;;;13.50;99.90;;;;;;5073552;28;20024;-36
2022/10/20 10:22:50;;;;;;;8.85;7.10;;;13.50;99.90;;;;;;5067974;28;20031;-41
2022/10/20 10:25:29;;;;;;;8.50;6.97;;;13.50;99.90;;;;;;5072812;28;20379;-39
2022/10/20 10:28:05;;;;;;;7.03;5.97;;;13.60;99.90;;;;;;5068716;28;20028;-38
2022/10/20 10:30:34;;;;;;;8.20;6.75;;;13.60;99.90;;;;;;5073271;28;20048;-40
2022/10/20 10:33:00;;;;;;;7.50;6.72;;;13.60;99.90;;;;;;5068485;28;20128;-40
2022/10/20 10:35:40;;;;;;;7.55;6.63;;;13.60;99.90;;;;;;5070572;28;20018;-41
2022/10/20 10:38:10;;;;;;;8.73;6.60;;;13.60;99.90;;;;;;5069550;28;20032;-39
2022/10/20 10:41:05;;;;;;;8.65;6.75;;;13.70;99.90;;;;;;5070240;28;20073;-40
2022/10/20 10:43:47;;;;;;;10.48;6.22;;;13.70;99.90;;;;;;5067575;28;20116;-41
2022/10/20 10:46:20;;;;;;;7.13;6.07;;;13.80;99.90;;;;;;5073992;28;20031;-39
2022/10/20 10:49:20;;;;;;;7.00;6.30;;;13.90;99.90;;;;;;5065826;28;20027;-39
2022/10/20 10:52:12;;;;;;;6.97;6.25;;;13.90;99.90;;;;;;5025835;28;20120;-39
2022/10/20 10:55:12;;;;;;;7.15;6.38;;;14.00;99.90;;;;;;5065021;28;20074;-42
2022/10/20 10:58:03;;;;;;;6.85;5.70;;;14.00;99.90;;;;;;5047997;28;20082;-38
2022/10/20 11:00:47;;;;;;;6.45;5.85;;;14.10;99.90;;;;;;5083035;28;20028;-38
2022/10/20 11:03:24;;;;;;;9.48;6.53;;;14.10;99.90;;;;;;5073788;28;20736;-37
2022/10/20 11:06:06;;;;;;;9.05;6.65;;;14.20;99.90;;;;;;5083554;28;20103;-41
2022/10/20 11:08:59;;;;;;;8.50;5.68;;;14.20;99.90;;;;;;5073271;28;20040;-41
2022/10/20 11:11:44;;;;;;;;;;;14.30;99.90;;;;;;5079712;28;20036;-39
2022/10/20 11:14:31;;;;;;;6.85;5.68;;;14.30;99.90;;;;;;5078408;28;19931;-40
2022/10/20 11:17:14;;;;;;;7.68;5.70;;;14.30;99.90;;;;;;5076891;28;20028;-39
2022/10/20 11:20:07;;;;;;;9.10;5.82;;;14.30;99.90;;;;;;5081527;28;20104;-40
2022/10/20 11:22:52;;;;;;;5.97;4.80;;;14.30;99.90;;;;;;5071250;28;20036;-38
2022/10/20 11:25:47;;;;;;;7.72;5.90;;;14.30;99.90;;;;;;5063778;28;20033;-41
2022/10/20 11:28:27;;;;;;;6.80;5.68;;;14.30;99.90;;;;;;5075877;28;20036;-40
2022/10/20 11:30:56;;;;;;;7.15;6.22;;;14.30;99.90;;;;;;5062827;28;20057;-39
2022/10/20 11:33:26;;;;;;;6.85;6.15;;;14.30;99.90;;;;;;5075130;28;20120;-40
2022/10/20 11:36:07;;;;;;;7.80;5.80;;;14.30;99.90;;;;;;5063386;28;20025;-39
2022/10/20 11:38:45;;;;;;;8.35;6.20;;;14.30;99.90;;;;;;5076823;28;20028;-40
2022/10/20 11:41:28;;;;;;;6.13;5.53;;;14.30;99.90;;;;;;5063457;28;20099;-39
2022/10/20 11:44:15;;;;;;;6.47;5.88;;;14.30;99.90;;;;;;5071908;28;20502;-40
2022/10/20 11:47:04;;;;;;;8.23;5.97;;;14.30;99.90;;;;;;5084096;28;20144;-40
2022/10/20 11:49:36;;;;;;;6.50;5.90;;;14.30;99.90;;;;;;5074431;28;20799;-40
2022/10/20 11:52:32;;;;;;;8.10;6.13;;;14.30;99.90;;;;;;5064328;28;20635;-39
2022/10/20 11:55:22;;;;;;;6.88;5.55;;;14.30;99.90;;;;;;5073495;28;20024;-38
2022/10/20 11:58:14;;;;;;;7.32;6.60;;;14.30;99.90;;;;;;5079623;28;20030;-41
2022/10/20 12:00:39;;;;;;;9.77;6.40;;;14.20;99.90;;;;;;5077807;28;20024;-40
2022/10/20 12:03:24;;;;;;;7.47;6.60;;;14.20;99.90;;;;;;5080074;28;20036;-40
2022/10/20 12:06:26;;;;;;;8.00;6.55;;;14.20;99.90;;;;;;5076985;28;20027;-40
2022/10/20 12:09:20;;;;;;;9.05;6.50;;;14.20;99.90;;;;;;5075169;28;20040;-41
2022/10/20 12:12:11;;;;;;;8.18;6.80;;;14.20;99.90;;;;;;5062842;28;20145;-39
2022/10/20 12:14:41;;;;;;;8.45;7.10;;;14.20;99.90;;;;;;5075923;28;20031;-39
2022/10/20 12:17:23;;;;;;;7.88;6.28;;;14.20;99.90;;;;;;5063761;28;20616;-39
2022/10/20 12:19:50;;;;;;;9.10;6.40;;;14.20;99.90;;;;;;5074726;28;20471;-43
2022/10/20 12:22:16;;;;;;;9.00;6.75;;;14.30;99.90;;;;;;5062799;28;20032;-39
2022/10/20 12:25:03;;;;;;;7.95;6.60;;;14.30;99.90;;;;;;5074645;28;20028;-38
2022/10/20 12:27:29;;;;;;;7.88;6.68;;;14.30;99.90;;;;;;5010809;28;20066;-38
2022/10/20 12:29:57;;;;;;;8.27;7.15;;;14.40;99.90;;;;;;5074333;28;20515;-40
2022/10/20 12:32:56;;;;;;;11.07;7.35;;;14.30;99.90;;;;;;5062620;28;20072;-38
2022/10/20 12:35:21;;;;;;;8.65;7.40;;;14.30;99.90;;;;;;5081650;28;20043;-40
2022/10/20 12:37:54;;;;;;;10.02;7.30;;;14.30;99.90;;;;;;5069339;28;20032;-40
2022/10/20 12:40:28;;;;;;;9.05;7.95;;;14.20;99.90;;;;;;5080585;28;20818;-40
2022/10/20 12:42:54;;;;;;;8.30;7.47;;;14.30;99.90;;;;;;5069967;28;20029;-40
2022/10/20 12:45:34;;;;;;;8.45;7.43;;;14.30;99.90;;;;;;5079888;28;20070;-40
2022/10/20 12:48:01;;;;;;;10.63;7.63;;;14.30;99.90;;;;;;5069021;28;20703;-39
2022/10/20 12:50:42;;;;;;;8.98;7.40;;;14.40;99.90;;;;;;5079715;28;20031;-38
2022/10/20 12:53:15;;;;;;;10.38;7.60;;;14.40;99.90;;;;;;5077584;28;20032;-40
2022/10/20 12:56:02;;;;;;;7.85;7.03;;;14.50;99.90;;;;;;5078342;28;20037;-40
2022/10/20 12:58:31;;;;;;;8.52;7.63;;;14.50;99.90;;;;;;5051334;28;20396;-37
2022/10/20 13:00:57;;;;;;;7.97;7.18;;;14.50;99.90;;;;;;5080245;28;20445;-40
2022/10/20 13:03:47;;;;;;;9.98;7.40;;;14.60;99.90;;;;;;5069918;28;20468;-40
2022/10/20 13:06:22;;;;;;;9.65;6.85;;;14.70;99.90;;;;;;5081924;28;20387;-41
2022/10/20 13:09:03;;;;;;;7.68;6.97;;;14.70;99.90;;;;;;5069101;28;20487;-40
2022/10/20 13:11:34;;;;;;;7.15;6.30;;;14.80;99.90;;;;;;5081123;28;20125;-40